Flight Track Log - Related Links

Times and Time Zones

All times are in EDT time to prevent confusion due to time zone crossing. See the N244A flight status page for this flight to view local times or setup timezone preferences in your user account.


Time Position Orientation Groundspeed Altitude Reporting Facility
EDT Latitude Longitude Course Direction KTS MPH feet Rate Location/Type
Thu 11:40:49 AM 42.4167 -71.2833 176° South 189 217 2,900  Level KA90
Thu 11:43:09 AM 42.3800 -71.4686 255° West 232 267 6,600 1,890 Climbing Boston Center
Thu 11:44:09 AM 42.3728 -71.5564 264° West 238 274 9,200 3,124 Climbing Boston Center
Thu 11:45:10 AM 42.3619 -71.6644 262° West 284 327 12,900 3,854 Climbing Boston Center
Thu 11:46:12 AM 42.3472 -71.7650 259° West 254 292 17,100 2,829 Climbing Boston Center
Thu 11:47:13 AM 42.3117 -71.8517 241° Southwest 273 314 18,700 1,835 Climbing Boston Center
Thu 11:48:13 AM 42.2697 -71.9456 239° Southwest 295 339 20,800 1,306 Climbing Boston Center
Thu 11:49:17 AM 42.2228 -72.0575 241° Southwest 335 386 21,400 1,152 Climbing Boston Center
Thu 11:50:18 AM 42.1697 -72.1775 239° Southwest 364 419 23,200 1,820 Climbing Boston Center
Thu 11:51:19 AM 42.1019 -72.2847 230° Southwest 375 432 25,100 1,279 Climbing Boston Center
Thu 11:52:20 AM 42.0328 -72.3928 229° Southwest 379 436 25,800 1,180 Climbing Boston Center
Thu 11:53:21 AM 41.9622 -72.5089 231° Southwest 392 451 27,500 1,951 Climbing Boston Center
Thu 11:54:23 AM 41.8919 -72.6203 230° Southwest 392 451 29,800 2,000 Climbing Boston Center
Thu 11:55:24 AM 41.8142 -72.7444 230° Southwest 364 419 31,600 1,041 Climbing Boston Center
Thu 11:56:24 AM 41.7444 -72.8550 230° Southwest 385 443 31,900 645 Climbing Boston Center
Thu 11:57:25 AM 41.6706 -72.9728 230° Southwest 412 474 32,900 1,476 Climbing Boston Center
Thu 11:58:30 AM 41.6017 -73.0867 231° Southwest 400 460 35,000 1,968 Climbing Boston Center
Thu 11:59:30 AM 41.5300 -73.1967 229° Southwest 373 429 37,000 1,300 Climbing Boston Center
Thu 12:00:30 PM 41.4697 -73.2914 230° Southwest 347 399 37,600 446 Climbing Boston Center
Thu 12:01:31 PM 41.4050 -73.3925 230° Southwest 356 410 37,900 192 Climbing Boston Center
Thu 12:02:35 PM 41.3378 -73.4961 229° Southwest 368 423 38,000 48 Climbing Boston Center
Thu 12:03:36 PM 41.2683 -73.6056 230° Southwest 385 443 38,000  Level Boston Center
Thu 12:04:36 PM 41.1992 -73.7192 231° Southwest 396 456 38,000  Level Boston Center
Thu 12:05:36 PM 41.1306 -73.8389 233° Southwest 407 468 38,000  Level Boston Center
Thu 12:06:58 PM 41.0275 -74.0111 232° Southwest 422 486 38,000  Level New York Center
Thu 12:07:58 PM 40.9578 -74.1286 232° Southwest 422 486 38,000  Level New York Center
Thu 12:08:58 PM 40.8856 -74.2431 230° Southwest 422 486 38,000  Level New York Center
Thu 12:09:57 PM 40.8153 -74.3631 232° Southwest 422 486 38,000  Level New York Center
Thu 12:10:58 PM 40.7450 -74.4769 231° Southwest 417 480 38,000 149 Level New York Center
Thu 12:11:58 PM 40.6747 -74.5936 232° Southwest 417 480 38,300 950 Climbing New York Center
Thu 12:12:58 PM 40.6128 -74.6994 232° Southwest 400 460 39,900 807 Climbing New York Center
Thu 12:13:57 PM 40.5492 -74.7997 230° Southwest 382 440 39,900 50 Level New York Center
Thu 12:14:57 PM 40.4792 -74.8911 225° Southwest 370 426 40,000  Climbing New York Center
Thu 12:15:58 PM 40.4111 -74.9933 229° Southwest 364 419 39,900  Descending New York Center
Thu 12:16:58 PM 40.3408 -75.0897 226° Southwest 364 419 40,000 50 Climbing New York Center
Thu 12:17:58 PM 40.2683 -75.1886 226° Southwest 364 419 40,000 -50 Level New York Center
Thu 12:18:58 PM 40.1981 -75.2872 227° Southwest 369 425 39,900 -50 Descending New York Center
Thu 12:19:58 PM 40.1294 -75.3861 228° Southwest 375 432 39,900  Level New York Center
Thu 12:20:58 PM 40.0589 -75.4872 228° Southwest 375 432 39,900  Level New York Center
Thu 12:21:57 PM 39.9858 -75.5878 227° Southwest 375 432 39,900  Level New York Center
Thu 12:22:57 PM 39.9131 -75.6858 226° Southwest 375 432 39,900  Level New York Center
Thu 12:23:58 PM 39.8481 -75.7919 231° Southwest 380 437 39,900  Level New York Center
Thu 12:24:58 PM 39.7831 -75.8981 231° Southwest 380 437 39,900  Level New York Center
Thu 12:26:58 PM 39.6500 -76.1089 231° Southwest 383 441 39,900  Level Washington Center
Thu 12:27:59 PM 39.5786 -76.2136 229° Southwest 383 441 39,900  Level Washington Center
Thu 12:29:00 PM 39.5136 -76.3150 230° Southwest 378 435 39,900  Level Washington Center
Thu 12:29:58 PM 39.4461 -76.4192 230° Southwest 378 435 39,900 51 Level Washington Center
Thu 12:30:58 PM 39.3703 -76.5339 229° Southwest 378 435 40,000 50 Climbing Washington Center
Thu 12:31:59 PM 39.3028 -76.6375 230° Southwest 378 435 40,000  Level Washington Center
Thu 12:33:00 PM 39.2350 -76.7439 231° Southwest 378 435 40,000  Level Washington Center
Thu 12:33:58 PM 39.1694 -76.8472 231° Southwest 378 435 40,000  Level Washington Center
Thu 12:34:59 PM 39.1017 -76.9531 230° Southwest 378 435 40,000  Level Washington Center
Thu 12:36:00 PM 39.0336 -77.0561 230° Southwest 378 435 40,000  Level Washington Center
Thu 12:37:00 PM 38.9492 -77.1478 220° Southwest 384 442 40,000  Level Washington Center
Thu 12:37:58 PM 38.8625 -77.2367 219° Southwest 396 456 40,000  Level Washington Center
Thu 12:38:58 PM 38.7778 -77.3306 221° Southwest 406 467 40,000  Level Washington Center
Thu 12:39:59 PM 38.6911 -77.4217 219° Southwest 412 474 40,000  Level Washington Center
Thu 12:41:00 PM 38.6125 -77.5072 220° Southwest 412 474 40,000  Level Washington Center
Thu 12:42:00 PM 38.5275 -77.6033 222° Southwest 412 474 40,000  Level Washington Center
Thu 12:42:58 PM 38.4406 -77.6964 220° Southwest 412 474 40,000  Level Washington Center
Thu 12:43:59 PM 38.3553 -77.7892 220° Southwest 412 474 40,000  Level Washington Center
Thu 12:45:00 PM 38.2681 -77.8847 221° Southwest 412 474 40,000  Level Washington Center
Thu 12:45:58 PM 38.1789 -77.9769 219° Southwest 412 474 40,000  Level Washington Center
Thu 12:46:59 PM 38.0914 -78.0717 220° Southwest 412 474 40,000  Level Washington Center
Thu 12:48:00 PM 37.9975 -78.1714 220° Southwest 412 474 40,000  Level Washington Center
Thu 12:49:00 PM 37.9081 -78.2606 218° Southwest 406 467 40,000  Level Washington Center
Thu 12:49:58 PM 37.8119 -78.3492 216° Southwest 423 487 40,000  Level Washington Center
Thu 12:50:58 PM 37.7183 -78.4375 217° Southwest 428 493 40,000  Level Washington Center
Thu 12:51:59 PM 37.6328 -78.5208 218° Southwest 428 493 40,000  Level Washington Center
Thu 12:52:59 PM 37.5367 -78.6064 215° Southwest 428 493 40,000  Level Washington Center
Thu 12:54:00 PM 37.4428 -78.6967 217° Southwest 428 493 40,000  Level Washington Center
Thu 12:54:58 PM 37.3464 -78.7869 217° Southwest 428 493 40,000  Level Washington Center
Thu 12:55:59 PM 37.2503 -78.8742 216° Southwest 433 498 40,000  Level Washington Center
Thu 12:57:00 PM 37.1411 -78.9739 216° Southwest 440 506 40,000  Level Washington Center
Thu 12:58:00 PM 37.0444 -79.0658 217° Southwest 440 506 40,000  Level Washington Center
Thu 12:59:00 PM 36.9481 -79.1525 216° Southwest 440 506 40,000  Level Washington Center
Thu 12:59:58 PM 36.8494 -79.2414 216° Southwest 440 506 40,000  Level Washington Center
Thu 01:00:59 PM 36.7547 -79.3328 218° Southwest 440 506 40,000  Level Washington Center
Thu 01:03:09 PM 36.5506 -79.5136 215° Southwest 439 505 40,000  Level Atlanta Center
Thu 01:04:09 PM 36.4539 -79.6069 218° Southwest 439 505 40,000  Level Atlanta Center
Thu 01:05:09 PM 36.3567 -79.6922 215° Southwest 439 505 40,000  Level Atlanta Center
Thu 01:06:09 PM 36.2578 -79.7825 216° Southwest 439 505 40,000  Level Atlanta Center
Thu 01:07:09 PM 36.1525 -79.8781 216° Southwest 439 505 40,000  Level Atlanta Center
Thu 01:08:09 PM 36.0531 -79.9628 215° Southwest 439 505 40,000  Level Atlanta Center
Thu 01:09:09 PM 35.9428 -80.0300 206° Southwest 439 505 40,000  Level Atlanta Center
Thu 01:10:09 PM 35.8236 -80.0869 201° Southwest 447 514 40,000  Level Atlanta Center
Thu 01:11:09 PM 35.7189 -80.1356 201° Southwest 457 526 40,000  Level Atlanta Center
Thu 01:12:09 PM 35.6039 -80.1997 204° Southwest 457 526 40,000  Level Atlanta Center
Thu 01:13:09 PM 35.4889 -80.2586 203° Southwest 457 526 40,000  Level Atlanta Center
Thu 01:14:09 PM 35.3717 -80.3100 200° South 457 526 40,000  Level Atlanta Center
Thu 01:15:09 PM 35.2442 -80.3742 202° Southwest 452 520 40,000  Level Atlanta Center
Thu 01:16:09 PM 35.1414 -80.4294 204° Southwest 447 514 40,000  Level Atlanta Center
Thu 01:17:41 PM 34.9533 -80.5244 202° Southwest 460 529 40,000  Level Jacksonville Center
Thu 01:18:41 PM 34.8375 -80.5833 203° Southwest 455 524 40,000 -50 Level Jacksonville Center
Thu 01:19:41 PM 34.7342 -80.6367 203° Southwest 444 511 39,900 -50 Descending Jacksonville Center
Thu 01:20:41 PM 34.6164 -80.6928 201° Southwest 450 518 39,900  Level Jacksonville Center
Thu 01:21:41 PM 34.5006 -80.7511 203° Southwest 450 518 39,900  Level Jacksonville Center
Thu 01:22:41 PM 34.3844 -80.8042 201° Southwest 450 518 39,900  Level Jacksonville Center
Thu 01:23:41 PM 34.2667 -80.8625 202° Southwest 450 518 39,900  Level Jacksonville Center
Thu 01:24:41 PM 34.1464 -80.9178 201° Southwest 450 518 39,900  Level Jacksonville Center
Thu 01:25:41 PM 34.0283 -80.9756 202° Southwest 450 518 39,900 50 Level Jacksonville Center
Thu 01:26:41 PM 33.8978 -81.0361 201° Southwest 450 518 40,000 50 Climbing Jacksonville Center
Thu 01:27:41 PM 33.7819 -81.0936 202° Southwest 450 518 40,000 -50 Level Jacksonville Center
Thu 01:28:41 PM 33.6761 -81.1506 204° Southwest 450 518 39,900 -50 Descending Jacksonville Center
Thu 01:29:41 PM 33.5539 -81.2078 201° Southwest 456 525 39,900  Level Jacksonville Center
Thu 01:30:42 PM 33.4358 -81.2672 203° Southwest 462 532 39,900  Level Jacksonville Center
Thu 01:31:41 PM 33.3175 -81.3242 202° Southwest 462 532 39,900  Level Jacksonville Center
Thu 01:32:41 PM 33.1992 -81.3833 203° Southwest 462 532 39,900  Level Jacksonville Center
Thu 01:33:41 PM 33.0642 -81.4475 202° Southwest 467 537 39,900  Level Jacksonville Center
Thu 01:34:41 PM 32.9481 -81.5039 202° Southwest 472 543 39,900  Level Jacksonville Center
Thu 01:35:41 PM 32.8256 -81.5600 201° Southwest 472 543 39,900  Level Jacksonville Center
Thu 01:36:41 PM 32.7072 -81.6186 203° Southwest 472 543 39,900 50 Level Jacksonville Center
Thu 01:37:41 PM 32.5928 -81.6769 203° Southwest 465 535 40,000 50 Climbing Jacksonville Center
Thu 01:38:41 PM 32.4722 -81.7353 202° Southwest 471 542 40,000  Level Jacksonville Center
Thu 01:39:41 PM 32.3622 -81.7883 202° Southwest 471 542 40,000  Level Jacksonville Center
Thu 01:40:41 PM 32.2292 -81.8536 203° Southwest 471 542 40,000  Level Jacksonville Center
Thu 01:41:41 PM 32.1189 -81.9017 200° South 471 542 40,000  Level Jacksonville Center
Thu 01:42:41 PM 31.9836 -81.9619 201° Southwest 476 548 40,000  Level Jacksonville Center
Thu 01:43:41 PM 31.8481 -81.9828 187° South 481 554 40,000  Level Jacksonville Center
Thu 01:44:41 PM 31.7292 -81.9936 184° South 493 567 40,000  Level Jacksonville Center
Thu 01:45:41 PM 31.5747 -82.0072 184° South 499 574 40,000 -50 Level Jacksonville Center
Thu 01:46:41 PM 31.4536 -82.0206 185° South 494 568 39,900 -50 Descending Jacksonville Center
Thu 01:47:41 PM 31.3200 -82.0342 185° South 494 568 39,900  Level Jacksonville Center
Thu 01:48:41 PM 31.1825 -82.0428 183° South 494 568 39,900  Level Jacksonville Center
Thu 01:49:41 PM 31.0447 -82.0561 185° South 500 575 39,900  Level Jacksonville Center
Thu 01:50:41 PM 30.9069 -82.0694 185° South 500 575 39,900  Level Jacksonville Center
Thu 01:51:41 PM 30.7714 -82.0825 185° South 495 570 39,900  Level Jacksonville Center
Thu 01:52:41 PM 30.6336 -82.0933 184° South 495 570 39,900  Level Jacksonville Center
Thu 01:53:41 PM 30.4958 -82.1019 183° South 500 575 39,900  Level Jacksonville Center
Thu 01:54:41 PM 30.3581 -82.1125 184° South 500 575 39,900  Level Jacksonville Center
Thu 01:55:41 PM 30.2183 -82.1281 185° South 500 575 39,900  Level Jacksonville Center
Thu 01:56:41 PM 30.0783 -82.1100 174° South 495 570 39,900 -400 Level Jacksonville Center
Thu 01:57:41 PM 29.9236 -82.0850 172° South 510 587 39,100 -850 Descending Jacksonville Center
Thu 01:58:41 PM 29.7836 -82.0550 169° South 516 594 38,200 -1,050 Descending Jacksonville Center
Thu 01:59:41 PM 29.6478 -82.0275 170° South 509 586 37,000 -1,200 Descending Jacksonville Center
Thu 02:00:41 PM 29.5117 -81.9978 169° South 503 579 35,800 -1,050 Descending Jacksonville Center
Thu 02:01:41 PM 29.3739 -81.9728 171° South 503 579 34,900 -450 Descending Jacksonville Center
Thu 02:02:41 PM 29.2381 -81.9478 171° South 503 579 34,900  Level Jacksonville Center
Thu 02:03:41 PM 29.1019 -81.9136 168° South 503 579 34,900 -1,127 Level Jacksonville Center
Thu 02:05:26 PM 28.8867 -81.8742 171° South 523 602 31,800 -2,000 Descending Miami Center
Thu 02:06:26 PM 28.7356 -81.8461 171° South 518 596 29,400 -2,300 Descending Miami Center
Thu 02:07:26 PM 28.5989 -81.8189 170° South 513 590 27,200 -1,200 Descending Miami Center
Thu 02:08:26 PM 28.4706 -81.7872 168° South 494 568 27,000 -650 Descending Miami Center
Thu 02:09:26 PM 28.3467 -81.7486 165° South 474 545 25,900 -1,550 Descending Miami Center
Thu 02:10:26 PM 28.2186 -81.7125 166° South 469 540 23,900 -2,100 Descending Miami Center
Thu 02:11:26 PM 28.0842 -81.6783 167° South 480 552 21,700 -2,200 Descending Miami Center
Thu 02:12:26 PM 27.9478 -81.7008 188° South 486 559 19,500 -1,350 Descending Miami Center
Thu 02:13:26 PM 27.8150 -81.7375 194° South 463 533 19,000 -250 Descending Miami Center
Thu 02:14:26 PM 27.7014 -81.7653 192° South 443 510 19,000 -300 Level Miami Center
Thu 02:15:26 PM 27.5994 -81.7586 177° South 418 481 18,400 -1,300 Descending Miami Center
Thu 02:16:26 PM 27.4903 -81.7119 159° South 404 465 16,400 -2,050 Descending Miami Center
Thu 02:17:26 PM 27.3836 -81.6631 158° South 409 471 14,300 -1,700 Descending Miami Center
Thu 02:18:26 PM 27.2850 -81.6144 156° South 409 471 13,000 -1,350 Descending Miami Center
Thu 02:19:26 PM 27.1861 -81.5683 157° South 398 458 11,600 -1,350 Descending Miami Center
Thu 02:20:26 PM 27.0894 -81.5250 158° South 387 445 10,300 -800 Descending Miami Center
Thu 02:21:26 PM 26.9908 -81.4742 155° Southeast 369 425 10,000 -950 Descending Miami Center
Thu 02:22:26 PM 26.9119 -81.4642 174° South 292 336 8,400 -2,400 Descending Miami Center
Thu 02:23:26 PM 26.8597 -81.5297 228° Southwest 253 291 5,200 -1,700 Descending Miami Center
Thu 02:24:26 PM 26.8136 -81.5975 233° Southwest 265 305 5,000 -200 Descending Miami Center
Thu 02:25:26 PM 26.7800 -81.6683 242° Southwest 265 305 4,800 -600 Descending Miami Center
Thu 02:26:26 PM 26.7572 -81.7278 247° West 248 285 3,800 -900 Descending Miami Center
Thu 02:27:26 PM 26.7342 -81.7897 247° West 248 285 3,000 -950 Descending Miami Center
Thu 02:28:26 PM 26.7006 -81.8556 240° Southwest 232 267 1,900 -800 Descending Miami Center
Thu 02:29:26 PM 26.6597 -81.8911 218° Southwest 205 236 1,400 -500 Descending Miami Center
Thu 02:31:00 PM 26.5866 -81.8633 161° South  Level Estimated
Thu 02:38:00 PM 26.5866 -81.8633 North  Level Estimated
Thu 02:39:00 PM 26.5866 -81.8633 North  Level Estimated
Thu 02:40:00 PM 26.5866 -81.8633 North  Level Estimated
Thu 02:41:00 PM 26.5866 -81.8633 North  Level Estimated

Login

Don't have an account? Register now (free) for customized features, flight alerts, and more!